aviador You're here:

RCSS Decoded Metar

TAIPEI in TAIWAN
Report Time2018-05-21 20:00:00
UTC Time2018-05-21 20:34:56
Flight Rules vfr VFR
Wind100° at 05 kt
W.Decomp.*RWY 10: 5.0 kt HW 0.3 kt RCW
W.Rank100° ranks 1
Current wind is below 100° avg. (9.3)
Visibility8000 m
Phenomena:N/A
Clouds:Few 010 Hf
Expected CloudBase > 400 ft AGL from Temp-Dew spread
CeilingNone
Temp24°C (ISA +9)
Dew Point23°C (94% RH)
QNH1009 hPa
Density Alt1,572 ft
Elevation20 ft
Report Wrong Elevation
Raw Report
RCSS 212000Z 10005KT 8000 FEW010 24/23 Q1009 NOSIG RMK A2982=

Extra information for RCSS:More info

Metar Taf Metar & Taf Last 4 Metars F.Rules Stats Wind Profile Meteogram Temp Stats Airport Information Weather charts Add Link Nearby VenuesMetar ALERT Operation Metar Decoded Social comments